Time;durP1;ratioP1;P1;durP2;ratioP2;P2;SDS_P1;SDS_P2;PMS_P1;PMS_P2;Temp;Humidity;BMP_temperature;BMP_pressure;BME280_temperature;BME280_humidity;BME280_pressure;Samples;Min_cycle;Max_cycle;Signal;HPM_P1;HPM_P2
2023/05/24 00:05:17;;;;;;;;;;;;;;;9.92;78.56;102342.28;20809572;28;19932;-57
2023/05/24 00:15:39;;;;;;;;;;;;;;;9.86;78.34;102332.84;20804253;28;19925;-56
2023/05/24 00:26:00;;;;;;;;;;;;;;;9.85;78.31;102330.25;20807727;28;19925;-56
2023/05/24 00:36:22;;;;;;;;;;;;;;;9.77;79.02;102317.34;20799385;28;20461;-56
2023/05/24 00:46:43;;;;;;;;;;;;;;;9.74;79.37;102306.16;20801467;28;19925;-56
2023/05/24 00:57:05;;;;;;;;;;;;;;;9.77;79.44;102316.47;20801640;28;19933;-57
2023/05/24 01:07:32;;;;;;;;;;;;;;;9.79;79.85;102315.63;20803796;28;19931;-57
2023/05/24 01:18:14;;;;;;;;;;;;;;;9.81;78.64;102313.03;20814576;28;19925;-57
2023/05/24 01:28:37;;;;;;;;;;;;;;;9.75;79.42;102308.72;20813828;28;19932;-54
2023/05/24 01:38:59;;;;;;;;;;;;;;;9.81;79.87;102307.84;20790989;28;19933;-54
2023/05/24 01:49:24;;;;;;;;;;;;;;;9.86;81.79;102300.94;20779804;28;19926;-55
2023/05/24 01:59:46;;;;;;;;;;;;;;;9.89;79.44;102295.75;20803676;28;19929;-55
2023/05/24 02:10:08;;;;;;;;;;;;;;;9.84;79.17;102300.09;20825752;28;19933;-55
2023/05/24 02:20:29;;;;;;;;;;;;;;;9.84;79.71;102297.50;20802446;28;20015;-55
2023/05/24 02:30:51;;;;;;;;;;;;;;;9.83;79.84;102295.78;20818729;28;19929;-55
2023/05/24 02:41:16;;;;;;;;;;;;;;;9.86;79.79;102290.59;20812638;28;19925;-55
2023/05/24 02:51:38;;;;;;;;;;;;;;;9.96;79.65;102287.13;20802059;28;20019;-55
2023/05/24 03:01:59;;;;;;;;;;;;;;;9.93;78.46;102276.78;20827868;28;20452;-56
2023/05/24 03:12:21;;;;;;;;;;;;;;;9.99;79.87;102271.59;20809696;28;19925;-55
2023/05/24 03:22:42;;;;;;;;;;;;;;;10.01;79.31;102262.09;20806793;28;19929;-57
2023/05/24 03:33:04;;;;;;;;;;;;;;;10.03;79.00;102261.22;20795923;28;19933;-56
2023/05/24 03:43:25;;;;;;;;;;;;;;;10.06;79.41;102273.28;20806984;28;19925;-56
2023/05/24 03:53:47;;;;;;;;;;;;;;;10.04;79.11;102264.66;20797108;28;19929;-56
2023/05/24 04:04:08;;;;;;;;;;;;;;;10.06;78.97;102268.09;20800470;28;19931;-55
2023/05/24 04:14:30;;;;;;;;;;;;;;;10.08;78.91;102274.13;20817607;28;19960;-56
2023/05/24 04:24:51;;;;;;;;;;;;;;;10.06;79.72;102273.28;20805824;28;20312;-54
2023/05/24 04:35:13;;;;;;;;;;;;;;;10.15;79.56;102262.91;20801910;28;20060;-56
2023/05/24 04:45:34;;;;;;;;;;;;;;;10.23;80.50;102284.44;20806199;28;19994;-56
2023/05/24 04:55:56;;;;;;;;;;;;;;;10.34;79.91;102295.59;20804842;28;19929;-57
2023/05/24 05:06:18;;;;;;;;;;;;;;;10.37;79.92;102299.88;20803145;28;19929;-56
2023/05/24 05:16:40;;;;;;;;;;;;;;;10.47;79.74;102306.72;20800217;28;19932;-56
2023/05/24 05:27:01;;;;;;;;;;;;;;;10.60;78.67;102316.16;20801936;28;20318;-56
2023/05/24 05:37:23;;;;;;;;;;;;;;;10.75;78.70;102309.13;20789483;28;20363;-56
2023/05/24 05:47:44;;;;;;;;;;;;;;;10.88;80.45;102305.56;20799226;28;19936;-56
2023/05/24 05:58:06;;;;;;;;;;;;;;;11.04;79.05;102301.16;20801830;28;20347;-56
2023/05/24 06:08:29;;;;;;;;;;;;;;;11.21;78.98;102321.75;20790957;28;19929;-56
2023/05/24 06:18:51;;;;;;;;;;;;;;;11.30;79.27;102313.88;20798596;28;20381;-57
2023/05/24 06:29:25;;;;;;;;;;;;;;;11.45;78.30;102332.72;20797981;28;19932;-56
2023/05/24 06:39:46;;;;;;;;;;;;;;;11.65;78.02;102317.00;20800998;28;19929;-56
2023/05/24 06:50:08;;;;;;;;;;;;;;;11.80;78.32;102319.44;20808375;28;20315;-56
2023/05/24 07:00:29;;;;;;;;;;;;;;;11.98;77.50;102325.28;20812521;28;20249;-54
2023/05/24 07:10:52;;;;;;;;;;;;;;;12.08;77.61;102339.00;20807810;28;19929;-55
2023/05/24 07:21:13;;;;;;;;;;;;;;;12.14;79.17;102350.16;20809685;28;20020;-55
2023/05/24 07:31:35;;;;;;;;;;;;;;;12.26;78.26;102353.47;20809777;28;19936;-56
2023/05/24 07:41:57;;;;;;;;;;;;;;;12.32;77.39;102356.88;20782632;23;19976;-55
2023/05/24 07:52:19;;;;;;;;;;;;;;;12.44;76.00;102358.44;20568605;28;20013;-56
2023/05/24 08:02:41;;;;;;;;;;;;;;;12.56;76.67;102368.69;20570766;28;19930;-55
2023/05/24 08:13:03;;;;;;;;;;;;;;;12.66;76.05;102360.75;20587648;28;19985;-54
2023/05/24 08:23:25;;;;;;;;;;;;;;;12.76;75.90;102364.91;20568669;28;19969;-54
2023/05/24 08:33:49;;;;;;;;;;;;;;;12.91;76.04;102364.69;20582222;28;20337;-53
2023/05/24 08:44:11;;;;;;;;;;;;;;;13.04;75.21;102381.84;20578569;28;19926;-55
2023/05/24 08:54:35;;;;;;;;;;;;;;;13.07;76.22;102389.59;20583501;28;19937;-55
2023/05/24 09:04:57;;;;;;;;;;;;;;;13.04;76.26;102400.03;20553225;28;19993;-56
2023/05/24 09:15:18;;;;;;;;;;;;;;;13.08;76.07;102406.06;20580012;28;20354;-55
2023/05/24 09:25:44;;;;;;;;;;;;;;;13.17;76.81;102403.31;20566915;28;19926;-56
2023/05/24 09:36:06;;;;;;;;;;;;;;;13.29;75.73;102417.88;20584073;28;20495;-54
2023/05/24 09:46:28;;;;;;;;;;;;;;;13.35;76.50;102417.78;20569564;28;19933;-55
2023/05/24 09:56:50;;;;;;;;;;;;;;;13.50;75.72;102409.72;20582699;28;19933;-55
2023/05/24 10:07:12;;;;;;;;;;;;;;;13.49;77.38;102418.41;20563117;28;19926;-56
2023/05/24 10:17:33;;;;;;;;;;;;;;;13.79;74.44;102428.31;20557830;28;19934;-56
2023/05/24 10:28:00;;;;;;;;;;;;;;;13.83;74.10;102429.94;20596225;28;20008;-54
2023/05/24 10:38:22;;;;;;;;;;;;;;;14.14;73.74;102425.91;20594047;28;20381;-55
2023/05/24 10:48:57;;;;;;;;;;;;;;;14.19;73.93;102416.28;20578269;28;20016;-56
2023/05/24 10:59:33;;;;;;;;;;;;;;;14.38;73.92;102417.66;20571111;28;19926;-56
2023/05/24 11:09:56;;;;;;;;;;;;;;;14.45;72.49;102411.41;20596003;28;19926;-54
2023/05/24 11:20:19;;;;;;;;;;;;;;;14.36;73.26;102422.03;20592370;28;19945;-55
2023/05/24 11:30:41;;;;;;;;;;;;;;;14.42;71.41;102421.91;20556958;28;20324;-54
2023/05/24 11:41:03;;;;;;;;;;;;;;;14.87;70.71;102426.16;20587902;28;19933;-55
2023/05/24 11:51:29;;;;;;;;;;;;;;;14.87;71.36;102415.72;20576901;28;19933;-56
2023/05/24 12:02:00;;;;;;;;;;;;;;;14.88;70.53;102427.00;20569297;28;20460;-56
2023/05/24 12:12:22;;;;;;;;;;;;;;;14.96;70.98;102420.72;20584993;28;20000;-55
2023/05/24 12:22:55;;;;;;;;;;;;;;;15.05;71.45;102430.94;20577381;28;19926;-54
2023/05/24 12:33:20;;;;;;;;;;;;;;;14.98;70.52;102436.31;20586121;28;20325;-56
2023/05/24 12:43:43;;;;;;;;;;;;;;;14.95;71.43;102444.22;20582439;28;19927;-56
2023/05/24 12:54:04;;;;;;;;;;;;;;;14.94;70.60;102442.53;20571560;28;19997;-56
2023/05/24 13:04:26;;;;;;;;;;;;;;;14.86;69.38;102450.50;20577219;28;19957;-53
2023/05/24 13:14:48;;;;;;;;;;;;;;;14.81;71.33;102457.56;20582812;28;19926;-53
2023/05/24 13:25:13;;;;;;;;;;;;;;;14.90;71.66;102452.16;20583551;28;20021;-53
2023/05/24 13:35:34;;;;;;;;;;;;;;;14.99;71.83;102449.34;20568256;28;19930;-55
2023/05/24 13:45:57;;;;;;;;;;;;;;;14.97;72.25;102448.53;20563526;28;19926;-55
2023/05/24 13:56:18;;;;;;;;;;;;;;;14.96;72.37;102457.22;20556773;28;19930;-55
2023/05/24 14:06:40;;;;;;;;;;;;;;;14.95;71.89;102455.53;20594258;28;20279;-54
2023/05/24 14:17:01;;;;;;;;;;;;;;;15.01;70.91;102459.75;20590998;28;20384;-55
2023/05/24 14:27:23;;;;;;;;;;;;;;;14.87;70.18;102465.25;20593741;28;19977;-54
2023/05/24 14:37:45;;;;;;;;;;;;;;;14.94;72.20;102469.44;20590426;28;19926;-55
2023/05/24 14:48:09;;;;;;;;;;;;;;;15.05;71.51;102483.09;20582535;28;19926;-54
2023/05/24 14:58:31;;;;;;;;;;;;;;;14.92;72.26;102481.63;20600290;28;19930;-55
2023/05/24 15:08:54;;;;;;;;;;;;;;;14.73;73.06;102495.97;20579659;28;19926;-54
2023/05/24 15:19:16;;;;;;;;;;;;;;;14.72;72.77;102489.00;20577278;28;19930;-55
2023/05/24 15:29:37;;;;;;;;;;;;;;;14.72;72.83;102496.84;20570784;28;19930;-55
2023/05/24 15:39:59;;;;;;;;;;;;;;;14.66;72.39;102490.91;20574062;28;19930;-55
2023/05/24 15:50:21;;;;;;;;;;;;;;;14.62;71.04;102497.06;20580555;28;19930;-54
2023/05/24 16:01:02;;;;;;;;;;;;;;;14.54;72.75;102496.38;20568800;28;20048;-53
2023/05/24 16:11:24;;;;;;;;;;;;;;;14.50;72.28;102502.50;20566992;28;19961;-55
2023/05/24 16:21:45;;;;;;;;;;;;;;;14.42;73.06;102500.06;20586879;28;20344;-54
2023/05/24 16:32:07;;;;;;;;;;;;;;;14.38;72.56;102503.59;20576276;28;19934;-54
2023/05/24 16:42:29;;;;;;;;;;;;;;;14.40;71.58;102486.19;20565777;28;19961;-55
2023/05/24 16:52:50;;;;;;;;;;;;;;;14.40;71.94;102486.19;20556809;28;20282;-54
2023/05/24 17:03:12;;;;;;;;;;;;;;;14.47;71.00;102484.31;20581864;28;20270;-54
2023/05/24 17:13:33;;;;;;;;;;;;;;;14.48;71.20;102489.53;20584495;28;19981;-55
2023/05/24 17:23:55;;;;;;;;;;;;;;;14.50;71.51;102492.09;20564010;28;19972;-55
2023/05/24 17:34:17;;;;;;;;;;;;;;;14.51;72.16;102489.47;20569423;28;20297;-54
2023/05/24 17:44:38;;;;;;;;;;;;;;;14.43;71.94;102486.13;20565723;28;19930;-55
2023/05/24 17:55:00;;;;;;;;;;;;;;;14.40;72.17;102504.44;20567877;28;19945;-54
2023/05/24 18:05:21;;;;;;;;;;;;;;;14.37;72.34;102507.09;20562825;28;20404;-54
2023/05/24 18:15:43;;;;;;;;;;;;;;;14.35;71.40;102508.88;20560172;28;20108;-56
2023/05/24 18:26:06;;;;;;;;;;;;;;;14.36;72.28;102510.56;20566156;28;19930;-53
2023/05/24 18:36:28;;;;;;;;;;;;;;;14.26;72.61;102508.16;20574856;28;19930;-55
2023/05/24 18:46:52;;;;;;;;;;;;;;;14.18;72.98;102508.28;20579913;28;20039;-53
2023/05/24 18:57:14;;;;;;;;;;;;;;;14.01;73.77;102507.72;20596092;28;19944;-54
2023/05/24 19:07:35;;;;;;;;;;;;;;;13.85;73.66;102516.66;20578466;28;20013;-54
2023/05/24 19:17:57;;;;;;;;;;;;;;;13.70;74.54;102527.31;20572319;28;20117;-54
2023/05/24 19:28:19;;;;;;;;;;;;;;;13.53;74.71;102540.59;20587519;28;20345;-56
2023/05/24 19:38:40;;;;;;;;;;;;;;;13.47;75.23;102540.69;20572049;28;19933;-56
2023/05/24 19:49:02;;;;;;;;;;;;;;;13.34;76.03;102544.31;20577312;28;19937;-54
2023/05/24 19:59:23;;;;;;;;;;;;;;;13.24;77.15;102562.69;20566875;28;19930;-56
2023/05/24 20:09:45;;;;;;;;;;;;;;;13.15;76.20;102575.78;20568909;28;19926;-55
2023/05/24 20:20:06;;;;;;;;;;;;;;;13.09;77.18;102589.72;20572697;28;19958;-56
2023/05/24 20:30:29;;;;;;;;;;;;;;;13.04;77.10;102587.16;20558490;28;20380;-54
2023/05/24 20:40:50;;;;;;;;;;;;;;;12.96;77.95;102594.19;20576689;28;19950;-54
2023/05/24 20:51:12;;;;;;;;;;;;;;;12.91;77.41;102600.31;20569609;28;20311;-55
2023/05/24 21:01:33;;;;;;;;;;;;;;;12.73;77.20;102611.72;20570537;28;20608;-56
2023/05/24 21:11:55;;;;;;;;;;;;;;;12.58;78.58;102611.88;20567163;28;19926;-55
2023/05/24 21:22:16;;;;;;;;;;;;;;;12.51;78.21;102631.00;20582949;28;19930;-55
2023/05/24 21:32:39;;;;;;;;;;;;;;;12.38;78.98;102636.31;20567670;28;20418;-54
2023/05/24 21:43:02;;;;;;;;;;;;;;;12.39;80.28;102656.19;20583927;28;19930;-55
2023/05/24 21:53:23;;;;;;;;;;;;;;;12.46;78.47;102647.47;20564988;28;19926;-54
2023/05/24 22:03:44;;;;;;;;;;;;;;;12.47;78.53;102650.06;20578380;28;20294;-56
2023/05/24 22:14:06;;;;;;;;;;;;;;;12.50;78.62;102644.88;20563261;28;19933;-55
2023/05/24 22:24:27;;;;;;;;;;;;;;;12.54;79.09;102664.75;20593393;28;19933;-54
2023/05/24 22:34:49;;;;;;;;;;;;;;;12.51;78.52;102662.16;20580190;28;19934;-55
2023/05/24 22:45:10;;;;;;;;;;;;;;;12.46;79.84;102658.75;20580922;28;19933;-55
2023/05/24 22:55:32;;;;;;;;;;;;;;;12.42;79.73;102657.03;20566802;28;19926;-55
2023/05/24 23:05:53;;;;;;;;;;;;;;;12.39;78.96;102666.59;20569450;28;19937;-55
2023/05/24 23:16:16;;;;;;;;;;;;;;;12.31;81.24;102679.63;20574605;28;20001;-55
2023/05/24 23:26:38;;;;;;;;;;;;;;;12.17;80.63;102665.88;20577767;28;20013;-56
2023/05/24 23:37:00;;;;;;;;;;;;;;;12.19;80.85;102664.16;20587860;28;19930;-56
2023/05/24 23:47:21;;;;;;;;;;;;;;;12.09;82.99;102672.84;20590659;28;20382;-56
2023/05/24 23:57:44;;;;;;;;;;;;;;;12.01;80.34;102677.25;20570186;28;19937;-56
